Abernant, Alabama
Current Conditions -  °F | °C
As of 12:53 PM on Sunday 23 Nov 2014 (Local Time) from KTCL Reporting Station
Light Rain Light Rain  
Wind Chill: 66°   Ceiling: 7500
Heat Index: 66°   Visibility: 4mi
Dew Point: 64°   Wind: 13mph
Humidity: 93%   Direction: 180°S
Pressure: 29.58"   Gusts: 22mph
Location:  33.29°N, 87.2°W
Report Text: KTCL 231853Z 18011G19KT 4SM -RA FEW010 SCT030 OVC075 19/18 A2958 RMK AO2 SLP013 P0014 T01890178
Loading
Personal Weather Stations






























Interactive Weather Map New forecast layout! Learn more

10-Day Weather Forecast

Advertisements
Track Severe Weather on mobile